createdAt,value
2017-08-17T00:00:59.084Z,15.44
2017-08-17T00:01:58.738Z,15.34
2017-08-17T00:02:58.734Z,15.45
2017-08-17T00:03:58.735Z,15.44
2017-08-17T00:04:58.727Z,15.53
2017-08-17T00:05:58.400Z,15.47
2017-08-17T00:06:59.057Z,15.58
2017-08-17T00:07:58.391Z,15.52
2017-08-17T00:08:58.710Z,15.56
2017-08-17T00:09:59.055Z,15.56
2017-08-17T00:10:58.712Z,15.55
2017-08-17T00:11:59.021Z,15.56
2017-08-17T00:12:58.694Z,15.56
2017-08-17T00:13:59.013Z,15.56
2017-08-17T00:14:59.006Z,15.53
2017-08-17T00:15:58.698Z,15.52
2017-08-17T00:16:58.677Z,15.53
2017-08-17T00:17:58.685Z,15.45
2017-08-17T00:18:58.683Z,15.45
2017-08-17T00:19:58.660Z,15.44
2017-08-17T00:20:59.001Z,15.41
2017-08-17T00:21:58.982Z,15.4
2017-08-17T00:22:58.973Z,15.41
2017-08-17T00:23:58.989Z,15.31
2017-08-17T00:24:58.681Z,15.47
2017-08-17T00:25:58.637Z,15.23
2017-08-17T00:26:58.630Z,15.3
2017-08-17T00:27:58.628Z,15.25
2017-08-17T00:28:58.642Z,15.2
2017-08-17T00:29:58.621Z,15.16
2017-08-17T00:30:58.937Z,15.26
2017-08-17T00:31:58.940Z,15.2
2017-08-17T00:32:58.285Z,15.19
2017-08-17T00:33:58.927Z,15.13
2017-08-17T00:34:58.916Z,15.1
2017-08-17T00:35:58.909Z,15.1
2017-08-17T00:36:58.593Z,15.1
2017-08-17T00:37:58.916Z,15.12
2017-08-17T00:38:58.901Z,15
2017-08-17T00:39:58.575Z,15.07
2017-08-17T00:40:58.888Z,15
2017-08-17T00:41:58.883Z,15.02
2017-08-17T00:42:58.560Z,14.97
2017-08-17T00:43:58.890Z,15.04
2017-08-17T00:44:58.559Z,15.05
2017-08-17T00:45:58.880Z,15
2017-08-17T00:46:58.895Z,15.04
2017-08-17T00:47:58.874Z,15
2017-08-17T00:48:58.539Z,15.01
2017-08-17T00:49:58.529Z,15
2017-08-17T00:50:58.526Z,15.04
2017-08-17T00:51:58.847Z,15.07
2017-08-17T00:52:58.833Z,15.02
2017-08-17T00:53:58.511Z,15.02
2017-08-17T00:54:58.524Z,15
2017-08-17T00:55:58.505Z,15
2017-08-17T00:56:58.503Z,15.01
2017-08-17T00:57:58.814Z,15.01
2017-08-17T00:58:58.487Z,15.08
2017-08-17T00:59:58.478Z,15.04
2017-08-17T01:00:58.796Z,15.02
2017-08-17T01:01:58.802Z,15.05
2017-08-17T01:02:58.475Z,15
2017-08-17T01:03:58.788Z,15.02
2017-08-17T01:04:58.777Z,15.04
2017-08-17T01:05:59.253Z,15.01
2017-08-17T01:06:58.812Z,15
2017-08-17T01:07:58.781Z,15.04
2017-08-17T01:08:58.458Z,14.97
2017-08-17T01:09:58.768Z,14.97
2017-08-17T01:10:58.771Z,14.97
2017-08-17T01:11:58.420Z,14.94
2017-08-17T01:12:58.741Z,15.04
2017-08-17T01:13:58.751Z,14.97
2017-08-17T01:14:58.417Z,15.04
2017-08-17T01:15:58.721Z,15.04
2017-08-17T01:16:58.401Z,14.93
2017-08-17T01:17:58.400Z,14.97
2017-08-17T01:18:58.390Z,14.89
2017-08-17T01:19:58.718Z,14.9
2017-08-17T01:20:58.722Z,14.93
2017-08-17T01:21:58.726Z,14.86
2017-08-17T01:22:58.378Z,14.86
2017-08-17T01:23:58.699Z,14.85
2017-08-17T01:24:58.686Z,14.83
2017-08-17T01:25:58.368Z,14.85
2017-08-17T01:26:58.353Z,14.79
2017-08-17T01:27:58.688Z,14.87
2017-08-17T01:28:58.364Z,14.71
2017-08-17T01:29:58.655Z,14.77
2017-08-17T01:30:58.333Z,14.8
2017-08-17T01:31:58.649Z,14.74
2017-08-17T01:32:58.642Z,14.71
2017-08-17T01:33:58.331Z,14.7
2017-08-17T01:34:58.315Z,14.69
2017-08-17T01:35:58.306Z,14.71
2017-08-17T01:36:58.629Z,14.77
2017-08-17T01:37:58.624Z,14.67
2017-08-17T01:38:58.301Z,14.69
2017-08-17T01:39:58.610Z,14.64
2017-08-17T01:40:58.284Z,14.7
2017-08-17T01:41:58.614Z,14.64
2017-08-17T01:42:58.598Z,14.63
2017-08-17T01:43:58.604Z,14.69
2017-08-17T01:44:58.596Z,14.67
2017-08-17T01:45:58.591Z,14.67
2017-08-17T01:46:58.264Z,14.67
2017-08-17T01:47:58.577Z,14.67
2017-08-17T01:48:58.588Z,14.66
2017-08-17T01:49:58.562Z,14.61
2017-08-17T01:50:58.554Z,14.61
2017-08-17T01:51:58.574Z,14.6
2017-08-17T01:52:57.906Z,14.57
2017-08-17T01:53:58.555Z,14.69
2017-08-17T01:54:58.552Z,14.64
2017-08-17T01:55:58.231Z,14.66
2017-08-17T01:56:58.537Z,14.63
2017-08-17T01:57:58.528Z,14.64
2017-08-17T01:58:58.587Z,14.69
2017-08-17T01:59:58.549Z,14.67
2017-08-17T02:00:58.511Z,14.7
2017-08-17T02:01:58.523Z,14.63
2017-08-17T02:02:58.243Z,14.69
2017-08-17T02:03:58.494Z,14.67
2017-08-17T02:04:58.512Z,14.66
2017-08-17T02:05:58.479Z,14.63
2017-08-17T02:06:58.480Z,14.64
2017-08-17T02:07:58.472Z,14.61
2017-08-17T02:08:58.469Z,14.7
2017-08-17T02:09:58.147Z,14.67
2017-08-17T02:10:58.481Z,14.66
2017-08-17T02:11:58.488Z,14.63
2017-08-17T02:12:58.134Z,14.64
2017-08-17T02:13:58.116Z,14.61
2017-08-17T02:14:58.462Z,14.69
2017-08-17T02:15:58.147Z,14.66
2017-08-17T02:16:58.446Z,14.7
2017-08-17T02:17:58.437Z,14.66
2017-08-17T02:18:58.437Z,14.66
2017-08-17T02:19:58.417Z,14.69
2017-08-17T02:20:58.430Z,14.64
2017-08-17T02:21:58.119Z,14.56
2017-08-17T02:22:58.398Z,14.51
2017-08-17T02:23:58.400Z,14.48
2017-08-17T02:24:58.065Z,14.6
2017-08-17T02:25:58.086Z,14.52
2017-08-17T02:26:58.404Z,14.49
2017-08-17T02:27:58.373Z,14.46
2017-08-17T02:28:58.372Z,14.51
2017-08-17T02:29:58.365Z,14.45
2017-08-17T02:30:58.380Z,14.51
2017-08-17T02:31:58.362Z,14.61
2017-08-17T02:32:58.349Z,14.49
2017-08-17T02:33:58.042Z,14.59
2017-08-17T02:34:58.016Z,14.56
2017-08-17T02:35:58.335Z,14.46
2017-08-17T02:36:58.327Z,14.51
2017-08-17T02:37:58.345Z,14.49
2017-08-17T02:38:58.315Z,14.49
2017-08-17T02:39:58.010Z,14.61
2017-08-17T02:40:58.315Z,14.49
2017-08-17T02:41:58.312Z,14.51
2017-08-17T02:42:58.303Z,14.53
2017-08-17T02:43:58.296Z,14.49
2017-08-17T02:44:57.967Z,14.46
2017-08-17T02:45:57.967Z,14.56
2017-08-17T02:46:57.952Z,14.57
2017-08-17T02:47:58.308Z,14.53
2017-08-17T02:48:57.948Z,14.53
2017-08-17T02:49:58.267Z,14.46
2017-08-17T02:50:57.615Z,14.6
2017-08-17T02:51:58.256Z,14.61
2017-08-17T02:52:57.926Z,14.61
2017-08-17T02:53:57.607Z,14.61
2017-08-17T02:54:57.930Z,14.67
2017-08-17T02:55:57.910Z,14.63
2017-08-17T02:56:58.234Z,14.59
2017-08-17T02:57:58.222Z,14.46
2017-08-17T02:58:58.246Z,14.52
2017-08-17T02:59:57.896Z,14.53
2017-08-17T03:00:58.207Z,14.51
2017-08-17T03:01:57.877Z,14.49
2017-08-17T03:02:57.873Z,14.49
2017-08-17T03:03:58.192Z,14.59
2017-08-17T03:04:58.229Z,14.48
2017-08-17T03:05:57.866Z,14.59
2017-08-17T03:06:58.229Z,14.52
2017-08-17T03:07:57.848Z,14.51
2017-08-17T03:08:57.847Z,14.51
2017-08-17T03:09:57.855Z,14.46
2017-08-17T03:10:58.156Z,14.48
2017-08-17T03:11:58.169Z,14.49
2017-08-17T03:12:58.145Z,14.49
2017-08-17T03:13:58.147Z,14.52
2017-08-17T03:14:58.154Z,14.45
2017-08-17T03:15:58.131Z,14.56
2017-08-17T03:16:57.488Z,14.49
2017-08-17T03:17:57.801Z,14.48
2017-08-17T03:18:57.789Z,14.56
2017-08-17T03:19:58.110Z,14.51
2017-08-17T03:20:58.105Z,14.44
2017-08-17T03:21:58.148Z,14.49
2017-08-17T03:22:57.782Z,14.48
2017-08-17T03:23:58.112Z,14.39
2017-08-17T03:24:57.764Z,14.44
2017-08-17T03:25:57.773Z,14.33
2017-08-17T03:26:57.752Z,14.39
2017-08-17T03:27:58.101Z,14.48
2017-08-17T03:28:58.062Z,14.51
2017-08-17T03:29:57.734Z,14.53
2017-08-17T03:30:58.078Z,14.59
2017-08-17T03:31:58.055Z,14.44
2017-08-17T03:32:58.057Z,14.48
2017-08-17T03:33:58.038Z,14.46
2017-08-17T03:34:58.071Z,14.52
2017-08-17T03:35:58.030Z,14.45
2017-08-17T03:36:58.042Z,14.45
2017-08-17T03:37:58.022Z,14.49
2017-08-17T03:38:58.035Z,14.46
2017-08-17T03:39:57.685Z,14.48
2017-08-17T03:40:58.006Z,14.52
2017-08-17T03:41:57.681Z,14.52
2017-08-17T03:42:57.987Z,14.46
2017-08-17T03:43:57.671Z,14.51
2017-08-17T03:44:57.982Z,14.51
2017-08-17T03:45:57.682Z,14.52
2017-08-17T03:46:57.974Z,14.48
2017-08-17T03:47:57.645Z,14.44
2017-08-17T03:48:57.979Z,14.42
2017-08-17T03:49:57.954Z,14.46
2017-08-17T03:50:57.950Z,14.51
2017-08-17T03:51:57.944Z,14.41
2017-08-17T03:52:57.952Z,14.52
2017-08-17T03:53:57.611Z,14.49
2017-08-17T03:54:57.618Z,14.46
2017-08-17T03:55:57.940Z,14.49
2017-08-17T03:56:57.610Z,14.51
2017-08-17T03:57:57.912Z,14.51
2017-08-17T03:58:57.919Z,14.48
2017-08-17T03:59:57.928Z,14.48
2017-08-17T04:00:57.614Z,14.51
2017-08-17T04:01:57.904Z,14.48
2017-08-17T04:02:57.921Z,14.45
2017-08-17T04:03:57.558Z,14.48
2017-08-17T04:04:57.893Z,14.51
2017-08-17T04:05:57.553Z,14.49
2017-08-17T04:06:57.547Z,14.48
2017-08-17T04:07:57.565Z,14.49
2017-08-17T04:08:57.852Z,14.48
2017-08-17T04:09:57.850Z,14.61
2017-08-17T04:10:57.879Z,14.53
2017-08-17T04:11:57.853Z,14.6
2017-08-17T04:12:57.208Z,14.46
2017-08-17T04:13:57.507Z,14.48
2017-08-17T04:14:57.503Z,14.48
2017-08-17T04:15:57.536Z,14.57
2017-08-17T04:16:57.852Z,14.63
2017-08-17T04:17:57.853Z,14.66
2017-08-17T04:18:57.799Z,14.6
2017-08-17T04:19:57.492Z,14.69
2017-08-17T04:20:57.789Z,14.63
2017-08-17T04:21:57.476Z,14.7
2017-08-17T04:22:57.471Z,14.69
2017-08-17T04:23:57.451Z,14.75
2017-08-17T04:24:57.451Z,14.74
2017-08-17T04:25:57.472Z,14.71
2017-08-17T04:26:57.438Z,14.7
2017-08-17T04:27:57.136Z,14.74
2017-08-17T04:28:57.753Z,14.82
2017-08-17T04:29:57.744Z,14.86
2017-08-17T04:30:57.420Z,14.85
2017-08-17T04:31:57.732Z,14.85
2017-08-17T04:32:57.745Z,14.82
2017-08-17T04:33:57.411Z,14.93
2017-08-17T04:34:57.398Z,14.97
2017-08-17T04:35:57.391Z,14.94
2017-08-17T04:36:57.716Z,15.01
2017-08-17T04:37:57.089Z,15.05
2017-08-17T04:38:57.400Z,15.05
2017-08-17T04:39:57.696Z,15.01
2017-08-17T04:40:57.364Z,15.04
2017-08-17T04:41:57.701Z,15.01
2017-08-17T04:42:57.357Z,15.01
2017-08-17T04:43:57.350Z,15.13
2017-08-17T04:44:57.669Z,15.22
2017-08-17T04:45:57.339Z,15.12
2017-08-17T04:46:57.659Z,15.2
2017-08-17T04:47:57.358Z,15.26
2017-08-17T04:48:57.648Z,15.23
2017-08-17T04:49:57.325Z,15.3
2017-08-17T04:50:57.645Z,15.27
2017-08-17T04:51:57.312Z,15.27
2017-08-17T04:52:57.631Z,15.33
2017-08-17T04:53:57.626Z,15.37
2017-08-17T04:54:57.617Z,15.33
2017-08-17T04:55:57.332Z,15.38
2017-08-17T04:56:57.622Z,15.41
2017-08-17T04:57:57.602Z,15.41
2017-08-17T04:58:57.616Z,15.45
2017-08-17T04:59:57.611Z,15.41
2017-08-17T05:00:57.598Z,15.45
2017-08-17T05:01:56.965Z,15.41
2017-08-17T05:02:57.614Z,15.45
2017-08-17T05:03:57.574Z,15.43
2017-08-17T05:04:57.246Z,15.44
2017-08-17T05:05:57.584Z,15.55
2017-08-17T05:06:57.583Z,15.45
2017-08-17T05:07:57.232Z,15.55
2017-08-17T05:08:57.557Z,15.52
2017-08-17T05:09:57.574Z,15.63
2017-08-17T05:10:57.242Z,15.6
2017-08-17T05:11:57.535Z,15.67
2017-08-17T05:12:57.554Z,15.58
2017-08-17T05:13:56.887Z,15.63
2017-08-17T05:14:57.540Z,15.77
2017-08-17T05:15:56.877Z,15.71
2017-08-17T05:16:57.212Z,15.74
2017-08-17T05:17:57.506Z,15.93
2017-08-17T05:18:57.181Z,15.96
2017-08-17T05:19:57.509Z,15.98
2017-08-17T05:20:57.496Z,16.13
2017-08-17T05:21:57.521Z,16.13
2017-08-17T05:22:57.491Z,16.33
2017-08-17T05:23:57.487Z,16.42
2017-08-17T05:24:57.156Z,16.55
2017-08-17T05:25:57.482Z,16.76
2017-08-17T05:26:57.466Z,16.92
2017-08-17T05:27:57.156Z,17.12
2017-08-17T05:28:57.466Z,17.22
2017-08-17T05:29:57.464Z,17.42
2017-08-17T05:30:57.463Z,17.6
2017-08-17T05:31:57.133Z,17.76
2017-08-17T05:32:57.127Z,17.92
2017-08-17T05:33:57.448Z,17.98
2017-08-17T05:34:56.817Z,18.14
2017-08-17T05:35:57.435Z,18.2
2017-08-17T05:36:57.435Z,18.32
2017-08-17T05:37:57.450Z,18.36
2017-08-17T05:38:57.423Z,18.54
2017-08-17T05:39:56.785Z,18.6
2017-08-17T05:40:57.424Z,18.68
2017-08-17T05:41:57.097Z,18.65
2017-08-17T05:42:57.100Z,18.68
2017-08-17T05:43:57.413Z,18.79
2017-08-17T05:44:57.424Z,18.86
2017-08-17T05:45:56.768Z,18.9
2017-08-17T05:46:57.404Z,18.89
2017-08-17T05:47:57.424Z,19
2017-08-17T05:48:57.099Z,18.86
2017-08-17T05:49:57.080Z,18.94
2017-08-17T05:50:57.429Z,18.99
2017-08-17T05:51:57.069Z,18.99
2017-08-17T05:52:57.385Z,18.96
2017-08-17T05:53:57.069Z,19.02
2017-08-17T05:54:57.065Z,18.94
2017-08-17T05:55:57.416Z,19
2017-08-17T05:56:57.065Z,18.94
2017-08-17T05:57:57.380Z,19.02
2017-08-17T05:58:57.060Z,18.96
2017-08-17T05:59:56.728Z,19.07
2017-08-17T06:00:57.379Z,19.05
2017-08-17T06:01:57.078Z,19.09
2017-08-17T06:02:57.382Z,19.02
2017-08-17T06:03:56.722Z,19
2017-08-17T06:04:57.042Z,19.02
2017-08-17T06:05:57.382Z,18.96
2017-08-17T06:06:57.037Z,19.09
2017-08-17T06:07:57.381Z,18.97
2017-08-17T06:08:57.388Z,19.05
2017-08-17T06:09:57.391Z,19.09
2017-08-17T06:10:57.361Z,19.09
2017-08-17T06:11:57.030Z,19.09
2017-08-17T06:12:57.026Z,19.13
2017-08-17T06:13:57.025Z,19.25
2017-08-17T06:14:57.355Z,19.3
2017-08-17T06:15:57.375Z,19.13
2017-08-17T06:16:56.697Z,19.19
2017-08-17T06:17:57.018Z,19.32
2017-08-17T06:18:57.335Z,19.27
2017-08-17T06:19:57.008Z,19.25
2017-08-17T06:20:57.012Z,19.19
2017-08-17T06:21:57.354Z,19.16
2017-08-17T06:22:57.007Z,19.13
2017-08-17T06:23:57.005Z,19.06
2017-08-17T06:24:57.329Z,19.07
2017-08-17T06:25:57.022Z,19.07
2017-08-17T06:26:56.676Z,19.05
2017-08-17T06:27:57.008Z,19.02
2017-08-17T06:28:57.008Z,18.99
2017-08-17T06:29:57.014Z,19.02
2017-08-17T06:30:57.016Z,18.94
2017-08-17T06:31:56.995Z,18.91
2017-08-17T06:32:56.988Z,18.96
2017-08-17T06:33:57.332Z,18.87
2017-08-17T06:34:56.986Z,18.86
2017-08-17T06:35:57.006Z,18.89
2017-08-17T06:36:57.331Z,18.86
2017-08-17T06:37:57.049Z,18.87
2017-08-17T06:38:57.299Z,18.84
2017-08-17T06:39:56.977Z,18.81
2017-08-17T06:40:56.980Z,18.75
2017-08-17T06:41:56.979Z,18.75
2017-08-17T06:42:57.321Z,18.75
2017-08-17T06:43:57.297Z,18.65
2017-08-17T06:44:56.977Z,18.72
2017-08-17T06:45:56.968Z,18.76
2017-08-17T06:46:57.286Z,18.75
2017-08-17T06:47:57.281Z,18.65
2017-08-17T06:48:56.963Z,18.65
2017-08-17T06:49:56.966Z,18.66
2017-08-17T06:50:57.275Z,18.66
2017-08-17T06:51:57.296Z,18.56
2017-08-17T06:52:57.281Z,18.53
2017-08-17T06:53:56.949Z,18.47
2017-08-17T06:54:57.292Z,18.59
2017-08-17T06:55:56.955Z,18.53
2017-08-17T06:56:56.945Z,18.47
2017-08-17T06:57:57.285Z,18.51
2017-08-17T06:58:56.644Z,18.5
2017-08-17T06:59:57.257Z,18.5
2017-08-17T07:00:56.615Z,18.54
2017-08-17T07:01:56.936Z,18.42
2017-08-17T07:02:57.264Z,18.45
2017-08-17T07:03:56.944Z,18.41
2017-08-17T07:04:56.928Z,18.42
2017-08-17T07:05:56.939Z,18.44
2017-08-17T07:06:56.920Z,18.45
2017-08-17T07:07:57.245Z,18.36
2017-08-17T07:08:57.251Z,18.41
2017-08-17T07:09:57.238Z,18.35
2017-08-17T07:10:57.247Z,18.32
2017-08-17T07:11:57.269Z,18.32
2017-08-17T07:12:57.251Z,18.34
2017-08-17T07:13:57.235Z,18.31
2017-08-17T07:14:56.906Z,18.26
2017-08-17T07:15:56.932Z,18.31
2017-08-17T07:16:56.909Z,18.24
2017-08-17T07:17:57.242Z,18.31
2017-08-17T07:18:56.913Z,18.34
2017-08-17T07:19:57.216Z,18.24
2017-08-17T07:20:57.223Z,18.2
2017-08-17T07:21:57.212Z,18.32
2017-08-17T07:22:57.212Z,18.27
2017-08-17T07:23:57.210Z,18.21
2017-08-17T07:24:56.886Z,18.17
2017-08-17T07:25:57.217Z,18.38
2017-08-17T07:26:57.216Z,18.27
2017-08-17T07:27:57.583Z,18.31
2017-08-17T07:28:57.196Z,18.34
2017-08-17T07:29:57.204Z,18.32
2017-08-17T07:30:56.868Z,18.26
2017-08-17T07:31:57.189Z,18.34
2017-08-17T07:32:57.208Z,18.34
2017-08-17T07:33:56.861Z,18.39
2017-08-17T07:34:57.182Z,18.49
2017-08-17T07:35:56.857Z,18.47
2017-08-17T07:36:56.879Z,18.54
2017-08-17T07:37:56.872Z,18.65
2017-08-17T07:38:57.188Z,18.68
2017-08-17T07:39:56.864Z,18.71
2017-08-17T07:40:57.165Z,18.76
2017-08-17T07:41:56.847Z,18.9
2017-08-17T07:42:56.842Z,18.84
2017-08-17T07:43:57.161Z,18.93
2017-08-17T07:44:57.155Z,18.9
2017-08-17T07:45:57.153Z,18.9
2017-08-17T07:46:56.850Z,18.96
2017-08-17T07:47:56.830Z,18.89
2017-08-17T07:48:57.147Z,18.96
2017-08-17T07:49:56.831Z,18.86
2017-08-17T07:50:56.822Z,18.96
2017-08-17T07:51:57.143Z,18.89
2017-08-17T07:52:57.140Z,18.82
2017-08-17T07:53:56.819Z,18.75
2017-08-17T07:54:57.135Z,18.84
2017-08-17T07:55:57.135Z,18.82
2017-08-17T07:56:57.138Z,18.84
2017-08-17T07:57:56.810Z,18.82
2017-08-17T07:58:57.127Z,18.81
2017-08-17T07:59:57.126Z,18.93
2017-08-17T08:00:56.819Z,18.89
2017-08-17T08:01:57.122Z,18.82
2017-08-17T08:02:57.119Z,18.91
2017-08-17T08:03:57.131Z,18.89
2017-08-17T08:04:57.116Z,18.91
2017-08-17T08:05:57.115Z,18.86
2017-08-17T08:06:56.792Z,18.94
2017-08-17T08:07:56.790Z,19
2017-08-17T08:08:57.132Z,18.93
2017-08-17T08:09:57.106Z,18.97
2017-08-17T08:10:57.116Z,19.06
2017-08-17T08:11:57.120Z,19.12
2017-08-17T08:12:56.797Z,19.15
2017-08-17T08:13:57.109Z,19.23
2017-08-17T08:14:56.797Z,19.32
2017-08-17T08:15:57.097Z,19.42
2017-08-17T08:16:57.095Z,19.53
2017-08-17T08:17:57.091Z,19.47
2017-08-17T08:18:57.456Z,19.78
2017-08-17T08:19:57.145Z,19.79
2017-08-17T08:20:56.784Z,19.89
2017-08-17T08:21:57.084Z,19.93
2017-08-17T08:22:56.762Z,20.01
2017-08-17T08:23:57.119Z,20.2
2017-08-17T08:24:56.773Z,20.34
2017-08-17T08:25:56.756Z,20.58
2017-08-17T08:26:56.757Z,20.88
2017-08-17T08:27:56.441Z,21.3
2017-08-17T08:28:56.762Z,21.59
2017-08-17T08:29:57.093Z,22.07
2017-08-17T08:30:56.753Z,22.42
2017-08-17T08:31:57.081Z,22.61
2017-08-17T08:32:57.081Z,23.01
2017-08-17T08:33:56.773Z,23.24
2017-08-17T08:34:57.075Z,23.29
2017-08-17T08:35:57.072Z,23.37
2017-08-17T08:36:57.107Z,23.44
2017-08-17T08:37:56.760Z,23.5
2017-08-17T08:38:56.760Z,23.62
2017-08-17T08:39:56.772Z,23.75
2017-08-17T08:40:57.076Z,23.79
2017-08-17T08:41:57.088Z,23.79
2017-08-17T08:42:57.089Z,23.72
2017-08-17T08:43:57.078Z,23.78
2017-08-17T08:44:57.082Z,23.78
2017-08-17T08:45:57.078Z,23.77
2017-08-17T08:46:57.088Z,23.67
2017-08-17T08:47:56.764Z,23.74
2017-08-17T08:48:56.773Z,23.75
2017-08-17T08:49:57.084Z,23.77
2017-08-17T08:50:56.772Z,23.79
2017-08-17T08:51:57.091Z,23.77
2017-08-17T08:52:56.771Z,23.81
2017-08-17T08:53:57.099Z,23.7
2017-08-17T08:54:56.770Z,23.71
2017-08-17T08:55:57.088Z,23.82
2017-08-17T08:56:56.784Z,23.92
2017-08-17T08:57:57.118Z,23.87
2017-08-17T08:58:56.814Z,23.92
2017-08-17T08:59:56.777Z,23.92
2017-08-17T09:00:57.097Z,23.96
2017-08-17T09:01:57.101Z,23.94
2017-08-17T09:02:57.098Z,23.93
2017-08-17T09:03:56.782Z,23.89
2017-08-17T09:04:57.110Z,23.89
2017-08-17T09:05:57.260Z,23.94
2017-08-17T09:06:56.804Z,23.87
2017-08-17T09:07:57.115Z,24
2017-08-17T09:08:56.794Z,24.14
2017-08-17T09:09:56.585Z,24.22
2017-08-17T09:10:56.793Z,24.24
2017-08-17T09:11:56.794Z,24.24
2017-08-17T09:12:56.816Z,24.36
2017-08-17T09:13:56.510Z,24.32
2017-08-17T09:14:57.129Z,24.36
2017-08-17T09:15:56.478Z,24.34
2017-08-17T09:16:56.810Z,24.32
2017-08-17T09:17:57.127Z,24.3
2017-08-17T09:18:57.135Z,24.44
2017-08-17T09:19:56.819Z,24.4
2017-08-17T09:20:57.127Z,24.54
2017-08-17T09:21:57.132Z,24.58
2017-08-17T09:22:56.814Z,24.77
2017-08-17T09:23:56.840Z,24.69
2017-08-17T09:24:56.828Z,24.77
2017-08-17T09:25:57.193Z,24.85
2017-08-17T09:26:57.158Z,24.89
2017-08-17T09:27:57.143Z,25.04
2017-08-17T09:28:57.168Z,24.97
2017-08-17T09:29:57.155Z,25.01
2017-08-17T09:30:56.881Z,25.01
2017-08-17T09:31:56.852Z,25.08
2017-08-17T09:32:57.212Z,25.02
2017-08-17T09:33:56.862Z,24.97
2017-08-17T09:34:57.159Z,24.93
2017-08-17T09:35:56.870Z,25.02
2017-08-17T09:36:56.862Z,25.01
2017-08-17T09:37:57.165Z,24.96
2017-08-17T09:38:57.167Z,24.92
2017-08-17T09:39:57.181Z,24.83
2017-08-17T09:40:57.191Z,24.74
2017-08-17T09:41:57.170Z,24.66
2017-08-17T09:42:56.569Z,24.71
2017-08-17T09:43:57.179Z,24.8
2017-08-17T09:44:57.181Z,24.83
2017-08-17T09:45:57.190Z,24.86
2017-08-17T09:46:57.199Z,24.89
2017-08-17T09:47:57.188Z,24.82
2017-08-17T09:48:57.190Z,24.9
2017-08-17T09:49:56.873Z,25.08
2017-08-17T09:50:56.878Z,24.96
2017-08-17T09:51:56.881Z,25.12
2017-08-17T09:52:57.197Z,25.19
2017-08-17T09:53:57.201Z,25.27
2017-08-17T09:54:57.214Z,25.26
2017-08-17T09:55:56.906Z,25.24
2017-08-17T09:56:57.211Z,25.27
2017-08-17T09:57:57.214Z,25.2
2017-08-17T09:58:57.233Z,25.17
2017-08-17T09:59:56.922Z,25.12
2017-08-17T10:00:57.234Z,25.14
2017-08-17T10:01:56.904Z,25.12
2017-08-17T10:02:56.928Z,25.08
2017-08-17T10:03:57.253Z,25.05
2017-08-17T10:04:56.913Z,25.05
2017-08-17T10:05:57.238Z,25.07
2017-08-17T10:06:57.238Z,25.14
2017-08-17T10:07:57.238Z,25.17
2017-08-17T10:08:56.597Z,25.22
2017-08-17T10:09:56.921Z,25.32
2017-08-17T10:10:56.945Z,25.27
2017-08-17T10:11:57.245Z,25.33
2017-08-17T10:12:57.247Z,25.33
2017-08-17T10:13:56.939Z,25.33
2017-08-17T10:14:57.261Z,25.62
2017-08-17T10:15:57.257Z,25.48
2017-08-17T10:16:57.261Z,25.66
2017-08-17T10:17:57.279Z,25.66
2017-08-17T10:18:56.945Z,25.82
2017-08-17T10:19:56.628Z,25.81
2017-08-17T10:20:56.641Z,25.82
2017-08-17T10:21:56.654Z,25.81
2017-08-17T10:22:56.641Z,25.81
2017-08-17T10:23:57.282Z,25.82
2017-08-17T10:24:57.281Z,25.81
2017-08-17T10:25:57.298Z,25.84
2017-08-17T10:26:57.309Z,25.86
2017-08-17T10:27:56.967Z,25.91
2017-08-17T10:28:57.293Z,25.94
2017-08-17T10:29:57.315Z,25.96
2017-08-17T10:30:57.314Z,25.93
2017-08-17T10:31:57.304Z,25.78
2017-08-17T10:32:57.364Z,25.76
2017-08-17T10:33:56.677Z,25.71
2017-08-17T10:34:57.309Z,25.76
2017-08-17T10:35:57.329Z,25.79
2017-08-17T10:36:57.318Z,25.94
2017-08-17T10:37:57.317Z,25.88
2017-08-17T10:38:57.325Z,25.93
2017-08-17T10:39:56.682Z,26.04
2017-08-17T10:40:57.329Z,26.06
2017-08-17T10:41:57.338Z,25.99
2017-08-17T10:42:57.018Z,25.89
2017-08-17T10:43:57.343Z,26.01
2017-08-17T10:44:57.341Z,26.01
2017-08-17T10:45:57.344Z,26.11
2017-08-17T10:46:57.361Z,26.04
2017-08-17T10:47:57.031Z,25.97
2017-08-17T10:48:57.360Z,25.93
2017-08-17T10:49:57.371Z,26.06
2017-08-17T10:50:57.041Z,26.09
2017-08-17T10:51:57.045Z,26.23
2017-08-17T10:52:57.402Z,26.24
2017-08-17T10:53:57.372Z,26.26
2017-08-17T10:54:57.395Z,26.22
2017-08-17T10:55:57.385Z,26.04
2017-08-17T10:56:57.095Z,26.11
2017-08-17T10:57:57.080Z,26.04
2017-08-17T10:58:57.385Z,26.04
2017-08-17T10:59:57.070Z,25.91
2017-08-17T11:00:57.077Z,25.91
2017-08-17T11:01:57.394Z,25.99
2017-08-17T11:02:57.395Z,25.89
2017-08-17T11:03:57.079Z,26.06
2017-08-17T11:04:57.083Z,25.97
2017-08-17T11:05:57.084Z,25.96
2017-08-17T11:06:57.410Z,25.94
2017-08-17T11:07:57.089Z,25.99
2017-08-17T11:08:57.414Z,25.97
2017-08-17T11:09:57.439Z,25.99
2017-08-17T11:10:57.452Z,26.06
2017-08-17T11:11:57.423Z,26.07
2017-08-17T11:12:57.113Z,26.06
2017-08-17T11:13:57.115Z,25.89
2017-08-17T11:14:57.112Z,25.88
2017-08-17T11:15:56.798Z,25.91
2017-08-17T11:16:57.448Z,26.04
2017-08-17T11:17:57.438Z,26.03
2017-08-17T11:18:57.129Z,26.06
2017-08-17T11:19:57.124Z,26.24
2017-08-17T11:20:57.129Z,26.23
2017-08-17T11:21:57.138Z,26.41
2017-08-17T11:22:57.464Z,26.41
2017-08-17T11:23:57.157Z,26.45
2017-08-17T11:24:57.149Z,26.49
2017-08-17T11:25:57.163Z,26.45
2017-08-17T11:26:57.476Z,26.63
2017-08-17T11:27:57.161Z,26.54
2017-08-17T11:28:57.174Z,26.53
2017-08-17T11:29:56.845Z,26.35
2017-08-17T11:30:57.483Z,26.3
2017-08-17T11:31:57.491Z,26.26
2017-08-17T11:32:57.489Z,26.26
2017-08-17T11:33:57.500Z,26.26
2017-08-17T11:34:57.498Z,26.3
2017-08-17T11:35:57.190Z,26.26
2017-08-17T11:36:57.510Z,26.19
2017-08-17T11:37:57.508Z,26.11
2017-08-17T11:38:57.204Z,26.31
2017-08-17T11:39:57.520Z,26.3
2017-08-17T11:40:57.224Z,26.26
2017-08-17T11:41:57.520Z,26.04
2017-08-17T11:42:57.238Z,26.01
2017-08-17T11:43:57.531Z,25.93
2017-08-17T11:44:57.533Z,26.07
2017-08-17T11:45:56.896Z,26.22
2017-08-17T11:46:57.223Z,26.3
2017-08-17T11:47:57.542Z,26.26
2017-08-17T11:48:57.555Z,26.35
2017-08-17T11:49:57.560Z,26.38
2017-08-17T11:50:57.554Z,26.26
2017-08-17T11:51:57.241Z,26.31
2017-08-17T11:52:57.562Z,26.31
2017-08-17T11:53:56.928Z,26.27
2017-08-17T11:54:57.247Z,26.26
2017-08-17T11:55:57.572Z,26.17
2017-08-17T11:56:57.257Z,26.06
2017-08-17T11:57:57.588Z,26.03
2017-08-17T11:58:57.261Z,26.22
2017-08-17T11:59:57.293Z,26.23
2017-08-17T12:00:57.591Z,26.3
2017-08-17T12:01:57.270Z,26.35
2017-08-17T12:02:57.597Z,26.41
2017-08-17T12:03:57.283Z,26.37
2017-08-17T12:04:57.284Z,26.37
2017-08-17T12:05:57.289Z,26.31
2017-08-17T12:06:57.299Z,26.45
2017-08-17T12:07:57.294Z,26.57
2017-08-17T12:08:57.302Z,26.74
2017-08-17T12:09:57.322Z,26.89
2017-08-17T12:10:57.306Z,26.93
2017-08-17T12:11:57.317Z,27.01
2017-08-17T12:12:57.635Z,26.9
2017-08-17T12:13:57.644Z,26.9
2017-08-17T12:14:57.644Z,26.81
2017-08-17T12:15:57.326Z,26.9
2017-08-17T12:16:57.328Z,26.89
2017-08-17T12:17:57.336Z,26.75
2017-08-17T12:18:57.364Z,26.6
2017-08-17T12:19:57.661Z,26.6
2017-08-17T12:20:57.368Z,26.47
2017-08-17T12:21:57.376Z,26.39
2017-08-17T12:22:57.354Z,26.34
2017-08-17T12:23:57.705Z,26.42
2017-08-17T12:24:57.682Z,26.35
2017-08-17T12:25:57.370Z,26.49
2017-08-17T12:26:57.692Z,26.6
2017-08-17T12:27:57.695Z,26.75
2017-08-17T12:28:57.700Z,26.86
2017-08-17T12:29:57.393Z,26.86
2017-08-17T12:30:57.387Z,27.05
2017-08-17T12:31:57.715Z,27.08
2017-08-17T12:32:57.395Z,27.11
2017-08-17T12:33:57.407Z,27.01
2017-08-17T12:34:57.745Z,26.93
2017-08-17T12:35:57.749Z,26.82
2017-08-17T12:36:57.740Z,26.87
2017-08-17T12:37:57.420Z,26.79
2017-08-17T12:38:57.756Z,26.72
2017-08-17T12:39:57.441Z,26.82
2017-08-17T12:40:57.445Z,26.86
2017-08-17T12:41:57.777Z,26.87
2017-08-17T12:42:57.119Z,26.79
2017-08-17T12:43:57.444Z,26.74
2017-08-17T12:44:57.772Z,26.67
2017-08-17T12:45:57.783Z,26.64
2017-08-17T12:46:57.777Z,26.69
2017-08-17T12:47:57.464Z,26.68
2017-08-17T12:48:57.472Z,26.67
2017-08-17T12:49:57.809Z,26.68
2017-08-17T12:50:57.174Z,26.67
2017-08-17T12:51:57.163Z,26.67
2017-08-17T12:52:57.816Z,26.74
2017-08-17T12:53:57.826Z,26.76
2017-08-17T12:54:57.813Z,26.84
2017-08-17T12:55:57.834Z,26.9